Time;durP1;ratioP1;P1;durP2;ratioP2;P2;SDS_P1;SDS_P2;PMS_P1;PMS_P2;Temp;Humidity;BMP_temperature;BMP_pressure;BME280_temperature;BME280_humidity;BME280_pressure;Samples;Min_cycle;Max_cycle;Signal;HPM_P1;HPM_P2
2023/06/08 00:01:44;;;;;;;32.53;18.23;;;;;;;15.17;100.00;98636.59;4453591;32;20133;-63
2023/06/08 00:04:16;;;;;;;32.83;17.37;;;;;;;15.18;100.00;98632.97;4453676;32;20115;-63
2023/06/08 00:06:44;;;;;;;29.65;17.15;;;;;;;15.09;100.00;98626.88;4453499;32;20176;-63
2023/06/08 00:09:11;;;;;;;33.45;17.08;;;;;;;15.07;100.00;98628.87;4453561;32;20120;-63
2023/06/08 00:11:38;;;;;;;32.10;17.65;;;;;;;15.05;100.00;98621.13;4453861;32;20116;-63
2023/06/08 00:14:06;;;;;;;32.50;17.48;;;;;;;14.97;100.00;98615.84;4453509;32;20135;-63
2023/06/08 00:16:34;;;;;;;31.92;17.00;;;;;;;14.92;100.00;98615.56;4453707;32;20117;-63
2023/06/08 00:19:02;;;;;;;33.08;16.98;;;;;;;14.90;100.00;98620.19;4453511;32;20555;-63
2023/06/08 00:21:33;;;;;;;28.67;16.40;;;;;;;14.87;100.00;98618.69;4453372;32;20478;-63
2023/06/08 00:24:00;;;;;;;32.88;16.67;;;;;;;14.85;100.00;98611.94;4453444;32;20172;-63
2023/06/08 00:26:28;;;;;;;32.85;16.87;;;;;;;14.90;100.00;98607.00;4439665;32;20225;-63
2023/06/08 00:28:55;;;;;;;35.00;16.98;;;;;;;14.86;100.00;98609.13;4453349;32;20455;-63
2023/06/08 00:31:23;;;;;;;34.15;16.77;;;;;;;14.82;100.00;98609.62;4453186;32;20165;-63
2023/06/08 00:33:50;;;;;;;32.88;16.15;;;;;;;14.84;100.00;98608.47;4453391;32;20101;-63
2023/06/08 00:36:18;;;;;;;35.88;17.30;;;;;;;14.88;100.00;98606.31;4453193;32;20100;-63
2023/06/08 00:38:45;;;;;;;33.63;17.15;;;;;;;14.90;100.00;98613.09;4453452;32;20092;-63
2023/06/08 00:41:13;;;;;;;33.10;17.02;;;;;;;14.89;100.00;98607.97;4453296;32;20089;-63
2023/06/08 00:43:44;;;;;;;33.75;16.83;;;;;;;14.86;100.00;98603.03;4453015;32;20565;-63
2023/06/08 00:46:13;;;;;;;33.40;17.17;;;;;;;14.86;100.00;98608.31;4453194;32;20104;-63
2023/06/08 00:48:41;;;;;;;37.22;16.95;;;;;;;14.87;100.00;98609.97;4439246;32;20096;-63
2023/06/08 00:51:10;;;;;;;34.05;17.27;;;;;;;14.86;100.00;98609.13;4439273;32;20221;-63
2023/06/08 00:53:38;;;;;;;31.42;18.23;;;;;;;14.85;100.00;98617.22;4453499;32;20659;-63
2023/06/08 00:56:06;;;;;;;33.20;18.30;;;;;;;14.88;100.00;98617.72;4452964;32;20101;-63
2023/06/08 00:58:37;;;;;;;36.95;19.42;;;;;;;14.96;100.00;98619.50;4453170;32;20161;-64
2023/06/08 01:01:11;;;;;;;32.67;17.42;;;;;;;14.98;100.00;98614.06;4453026;32;20113;-63
2023/06/08 01:03:39;;;;;;;35.15;17.85;;;;;;;15.02;100.00;98616.19;4452909;32;20391;-63
2023/06/08 01:06:12;;;;;;;33.20;17.50;;;;;;;15.07;100.00;98616.50;4449990;32;20096;-63
2023/06/08 01:08:54;;;;;;;32.65;18.17;;;;;;;15.20;100.00;98623.03;4468536;32;20077;-63
2023/06/08 01:12:01;;;;;;;36.92;18.80;;;;;;;15.21;100.00;98622.88;4468456;32;20089;-63
2023/06/08 01:14:54;;;;;;;32.47;18.20;;;;;;;15.21;100.00;98622.88;4467183;32;20118;-63
2023/06/08 01:17:32;;;;;;;32.58;18.37;;;;;;;15.22;100.00;98615.81;4404278;32;20140;-63
2023/06/08 01:20:24;;;;;;;28.65;17.37;;;;;;;15.24;100.00;98625.16;4404197;32;20094;-63
2023/06/08 01:23:25;;;;;;;33.90;17.87;;;;;;;15.30;100.00;98621.03;4404268;32;20512;-63
2023/06/08 01:25:56;;;;;;;35.33;17.70;;;;;;;15.34;100.00;98627.63;4404126;32;20086;-63
2023/06/08 01:28:25;;;;;;;31.73;17.60;;;;;;;15.40;100.00;98629.56;4391983;32;20126;-63
2023/06/08 01:30:52;;;;;;;29.85;17.77;;;;;;;15.39;100.00;98635.03;4404018;32;20506;-63
2023/06/08 01:33:25;;;;;;;30.70;17.45;;;;;;;15.41;100.00;98620.66;4404171;32;20102;-63
2023/06/08 01:36:15;;;;;;;29.23;16.33;;;;;;;15.45;100.00;98621.13;4404134;32;20181;-63
2023/06/08 01:39:02;;;;;;;26.83;16.30;;;;;;;15.49;100.00;98616.31;4391574;32;20117;-63
2023/06/08 01:41:35;;;;;;;43.13;17.37;;;;;;;15.52;100.00;98623.91;4391364;32;20572;-63
2023/06/08 01:44:04;;;;;;;30.37;15.85;;;;;;;15.49;100.00;98617.16;4403913;32;20126;-63
2023/06/08 01:46:32;;;;;;;31.62;17.58;;;;;;;15.55;100.00;98620.94;4403859;32;20167;-63
2023/06/08 01:49:01;;;;;;;30.60;16.83;;;;;;;15.48;100.00;98627.91;4405211;32;20118;-63
2023/06/08 01:51:30;;;;;;;27.77;15.45;;;;;;;15.50;100.00;98626.72;4405818;32;20114;-63
2023/06/08 01:54:06;;;;;;;23.10;14.77;;;;;;;15.53;100.00;98625.56;4419613;32;20165;-63
2023/06/08 01:56:35;;;;;;;24.52;14.52;;;;;;;15.53;100.00;98620.28;4485707;32;20127;-63
2023/06/08 01:59:03;;;;;;;19.02;12.95;;;;;;;15.52;100.00;98622.09;4485967;32;20149;-63
2023/06/08 02:01:30;;;;;;;24.40;13.45;;;;;;;15.53;100.00;98612.34;4483309;32;83819;-63
2023/06/08 02:03:58;;;;;;;21.05;13.82;;;;;;;15.54;100.00;98616.66;4485847;32;20173;-63
2023/06/08 02:06:25;;;;;;;22.50;14.38;;;;;;;15.51;100.00;98607.25;4485738;32;20119;-63
2023/06/08 02:08:52;;;;;;;22.98;13.65;;;;;;;15.55;100.00;98610.38;4485889;31;20096;-63
2023/06/08 02:11:19;;;;;;;22.58;13.98;;;;;;;15.56;100.00;98609.38;4485795;31;20114;-63
2023/06/08 02:13:46;;;;;;;22.27;13.15;;;;;;;15.57;100.00;98611.03;4485310;31;20138;-63
2023/06/08 02:16:14;;;;;;;24.60;14.38;;;;;;;15.61;100.00;98615.78;4485778;31;20096;-63
2023/06/08 02:18:41;;;;;;;21.83;14.80;;;;;;;15.63;100.00;98609.50;4485637;32;20160;-63
2023/06/08 02:21:09;;;;;;;20.37;13.68;;;;;;;15.61;100.00;98610.50;4485816;31;20427;-63
2023/06/08 02:23:38;;;;;;;21.70;13.57;;;;;;;15.63;100.00;98615.59;4485667;31;20450;-63
2023/06/08 02:26:06;;;;;;;23.08;14.57;;;;;;;15.60;100.00;98610.69;4485918;32;20548;-63
2023/06/08 02:28:34;;;;;;;23.02;14.32;;;;;;;15.64;100.00;98611.97;4485818;32;20152;-63
2023/06/08 02:31:03;;;;;;;23.45;15.23;;;;;;;15.60;100.00;98610.69;4485655;31;20131;-63
2023/06/08 02:33:31;;;;;;;26.42;14.77;;;;;;;15.59;100.00;98609.03;4485400;31;20193;-63
2023/06/08 02:35:58;;;;;;;21.10;12.85;;;;;;;15.57;100.00;98608.38;4485967;32;20156;-63
2023/06/08 02:38:25;;;;;;;18.50;12.85;;;;;;;15.60;100.00;98611.50;4485820;31;20096;-63
2023/06/08 02:40:52;;;;;;;20.40;13.65;;;;;;;15.61;100.00;98609.69;4485659;31;20581;-63
2023/06/08 02:43:19;;;;;;;22.08;13.73;;;;;;;15.64;100.00;98601.41;4485688;31;20091;-63
2023/06/08 02:45:47;;;;;;;19.87;13.38;;;;;;;15.64;100.00;98601.41;4485969;31;20096;-63
2023/06/08 02:48:15;;;;;;;23.58;13.77;;;;;;;15.67;100.00;98605.50;4485855;31;20084;-63
2023/06/08 02:50:42;;;;;;;24.67;13.10;;;;;;;15.70;100.00;98613.94;4485675;31;20160;-63
2023/06/08 02:53:09;;;;;;;20.67;13.50;;;;;;;15.71;100.00;98602.34;4485668;31;20267;-63
2023/06/08 02:55:37;;;;;;;18.95;13.62;;;;;;;15.74;100.00;98602.00;4485491;31;20569;-63
2023/06/08 02:58:05;;;;;;;19.75;13.68;;;;;;;15.77;100.00;98601.69;4485786;32;20140;-63
2023/06/08 03:00:34;;;;;;;24.85;13.10;;;;;;;15.84;100.00;98596.53;4484603;32;20450;-63
2023/06/08 03:03:02;;;;;;;19.05;12.43;;;;;;;15.82;100.00;98598.53;4485700;31;20465;-63
2023/06/08 03:05:34;;;;;;;19.62;12.98;;;;;;;15.79;100.00;98602.34;4485289;31;20135;-63
2023/06/08 03:08:02;;;;;;;19.77;12.60;;;;;;;15.84;100.00;98601.00;4485564;31;20085;-64
2023/06/08 03:10:29;;;;;;;20.67;13.07;;;;;;;15.85;100.00;98603.47;4485708;32;20123;-63
2023/06/08 03:12:57;;;;;;;21.05;12.98;;;;;;;15.90;100.00;98608.22;4485003;31;20096;-63
2023/06/08 03:15:24;;;;;;;20.98;13.75;;;;;;;15.88;100.00;98599.63;4485775;31;20123;-63
2023/06/08 03:17:52;;;;;;;19.80;13.62;;;;;;;15.90;100.00;98598.47;4485533;31;20122;-63
2023/06/08 03:20:19;;;;;;;19.45;13.30;;;;;;;15.93;100.00;98602.59;4485536;31;20122;-63
2023/06/08 03:22:48;;;;;;;22.33;14.27;;;;;;;15.96;100.00;98604.88;4485559;31;20118;-63
2023/06/08 03:25:15;;;;;;;21.00;13.88;;;;;;;15.95;100.00;98603.22;4485431;32;20180;-63
2023/06/08 03:27:43;;;;;;;23.35;14.65;;;;;;;15.90;100.00;98600.31;4485458;31;20649;-63
2023/06/08 03:30:11;;;;;;;23.48;14.98;;;;;;;15.92;100.00;98600.94;4485478;31;20155;-63
2023/06/08 03:32:48;;;;;;;26.95;14.40;;;;;;;15.93;100.00;98605.22;4485437;31;20091;-63
2023/06/08 03:35:16;;;;;;;23.02;14.55;;;;;;;15.94;100.00;98606.84;4485456;31;20088;-64
2023/06/08 03:37:44;;;;;;;24.20;14.70;;;;;;;15.93;100.00;98613.16;4485408;32;20137;-63
2023/06/08 03:40:12;;;;;;;20.90;13.75;;;;;;;15.99;100.00;98608.97;4485201;31;20088;-63
2023/06/08 03:42:40;;;;;;;22.83;13.50;;;;;;;15.98;100.00;98613.44;4485208;32;20553;-63
2023/06/08 03:45:08;;;;;;;26.05;14.27;;;;;;;15.99;100.00;98615.09;4485358;31;20118;-63
2023/06/08 03:47:37;;;;;;;22.23;14.40;;;;;;;15.96;100.00;98612.81;4485273;32;20126;-63
2023/06/08 03:50:04;;;;;;;23.00;14.93;;;;;;;16.00;100.00;98614.09;4485493;31;20093;-63
2023/06/08 03:52:32;;;;;;;24.17;13.68;;;;;;;16.07;100.00;98615.03;4485471;31;20434;-63
2023/06/08 03:55:00;;;;;;;24.63;14.43;;;;;;;16.14;100.00;98607.22;4485122;31;20160;-63
2023/06/08 03:57:28;;;;;;;23.62;14.68;;;;;;;16.19;100.00;98619.91;4485273;31;20542;-63
2023/06/08 03:59:55;;;;;;;23.60;14.55;;;;;;;16.22;100.00;98620.38;4484987;32;20118;-63
2023/06/08 04:02:22;;;;;;;21.15;13.73;;;;;;;16.22;100.00;98615.09;4485464;31;20468;-64
2023/06/08 04:04:50;;;;;;;19.12;12.55;;;;;;;16.16;100.00;98622.91;4484742;31;20122;-64
2023/06/08 04:07:22;;;;;;;19.73;13.60;;;;;;;16.11;100.00;98613.69;4478581;31;20085;-64
2023/06/08 04:09:50;;;;;;;20.90;13.60;;;;;;;16.16;100.00;98615.78;4466253;32;20580;-64
2023/06/08 04:12:18;;;;;;;24.10;14.02;;;;;;;16.18;100.00;98610.34;4464032;32;20105;-63
2023/06/08 04:14:45;;;;;;;24.05;14.07;;;;;;;16.18;100.00;98608.50;4477292;31;20091;-64
2023/06/08 04:17:12;;;;;;;21.23;13.55;;;;;;;16.24;100.00;98604.34;4468062;32;20389;-64
2023/06/08 04:19:41;;;;;;;19.35;12.98;;;;;;;16.31;100.00;98603.44;4469082;32;20108;-64
2023/06/08 04:22:08;;;;;;;22.05;13.30;;;;;;;16.39;100.00;98613.13;4471888;32;20089;-64
2023/06/08 04:24:38;;;;;;;21.80;13.55;;;;;;;16.33;100.00;98605.91;4471261;31;20112;-65
2023/06/08 04:27:06;;;;;;;21.20;13.35;;;;;;;16.33;100.00;98613.84;4471118;32;20156;-65
2023/06/08 04:29:33;;;;;;;22.23;13.98;;;;;;;16.38;100.00;98619.44;4469044;32;20603;-66
2023/06/08 04:32:01;;;;;;;24.35;13.75;;;;;;;16.41;100.00;98620.87;4469317;32;20100;-65
2023/06/08 04:34:31;;;;;;;56.85;15.23;;;;;;;16.44;100.00;98612.59;4469289;32;20084;-65
2023/06/08 04:37:00;;;;;;;20.70;12.70;;;;;;;16.53;100.00;98622.09;4468395;32;20093;-65
2023/06/08 04:39:28;;;;;;;20.10;12.98;;;;;;;16.61;100.00;98621.22;4468228;32;20112;-65
2023/06/08 04:41:57;;;;;;;22.83;13.32;;;;;;;16.72;100.00;98620.78;4467735;32;20096;-65
2023/06/08 04:44:25;;;;;;;22.87;12.90;;;;;;;16.86;100.00;98621.78;4466752;32;20182;-65
2023/06/08 04:46:53;;;;;;;22.58;12.37;;;;;;;16.89;100.00;98625.94;4468445;32;20101;-65
2023/06/08 04:49:21;;;;;;;20.73;11.55;;;;;;;17.05;100.00;98627.56;4467816;32;20088;-65
2023/06/08 04:51:49;;;;;;;19.67;11.65;;;;;;;17.04;100.00;98629.41;4468818;32;20085;-65
2023/06/08 04:54:21;;;;;;;17.37;12.00;;;;;;;17.11;100.00;98625.03;4468189;32;20096;-65
2023/06/08 04:56:48;;;;;;;18.42;11.73;;;;;;;17.14;100.00;98627.31;4467839;32;20089;-65
2023/06/08 04:59:17;;;;;;;18.98;11.52;;;;;;;17.32;100.00;98628.75;4467848;32;20541;-65
2023/06/08 05:01:45;;;;;;;16.52;11.65;;;;;;;17.44;100.00;98634.41;4468076;32;20108;-65
2023/06/08 05:04:12;;;;;;;15.95;10.88;;;;;;;17.49;100.00;98640.78;4461539;32;20440;-65
2023/06/08 05:06:40;;;;;;;16.33;11.27;;;;;;;17.58;100.00;98644.16;4463984;32;20400;-65
2023/06/08 05:09:07;;;;;;;17.30;10.85;;;;;;;17.59;100.00;98643.13;4464459;32;20109;-65
2023/06/08 05:11:34;;;;;;;22.08;12.90;;;;;;;17.53;100.00;98644.72;4464384;32;20100;-65
2023/06/08 05:14:02;;;;;;;21.35;13.52;;;;;;;17.50;100.00;98638.97;4456707;32;20130;-65
2023/06/08 05:16:29;;;;;;;17.02;12.15;;;;;;;17.51;100.00;98641.41;4462398;32;20123;-65
2023/06/08 05:18:56;;;;;;;21.23;12.73;;;;;;;17.71;100.00;98646.13;4461903;32;20097;-65
2023/06/08 05:21:24;;;;;;;24.45;11.88;;;;;;;17.91;100.00;98641.09;4464242;32;20111;-65
2023/06/08 05:23:51;;;;;;;17.52;12.27;;;;;;;17.99;100.00;98645.47;4465375;32;20154;-65
2023/06/08 05:26:19;;;;;;;18.73;11.55;;;;;;;17.86;100.00;98646.91;4468264;32;20176;-65
2023/06/08 05:28:47;;;;;;;18.77;11.80;;;;;;;17.93;100.00;98649.69;4462693;32;20666;-66
2023/06/08 05:31:14;;;;;;;27.52;13.23;;;;;;;18.07;100.00;98645.34;4462320;32;20104;-65
2023/06/08 05:33:41;;;;;;;20.30;11.85;;;;;;;18.28;100.00;98652.47;4463274;32;20134;-65
2023/06/08 05:36:09;;;;;;;19.55;11.40;;;;;;;18.37;100.00;98645.22;4467915;32;20168;-65
2023/06/08 05:38:36;;;;;;;19.12;11.98;;;;;;;18.51;100.00;98646.97;4469233;32;20085;-66
2023/06/08 05:41:03;;;;;;;19.40;12.43;;;;;;;18.52;100.00;98642.50;4465120;32;20174;-66
2023/06/08 05:43:30;;;;;;;21.67;12.70;;;;;;;18.45;100.00;98639.78;4464476;32;20092;-65
2023/06/08 05:45:58;;;;;;;19.48;12.48;;;;;;;18.45;100.00;98647.72;4467384;32;20085;-66
2023/06/08 05:48:25;;;;;;;27.27;15.05;;;;;;;18.38;100.00;98645.03;4468195;32;20100;-67
2023/06/08 05:50:53;;;;;;;19.83;11.77;;;;;;;18.58;100.00;98642.53;4465194;32;20163;-67
2023/06/08 05:53:20;;;;;;;24.60;12.82;;;;;;;18.55;100.00;98648.22;4465236;32;20132;-66
2023/06/08 05:55:47;;;;;;;18.27;12.05;;;;;;;18.54;100.00;98646.56;4467175;32;20751;-66
2023/06/08 05:58:16;;;;;;;17.77;11.57;;;;;;;18.77;100.00;98653.50;4467725;32;20108;-66
2023/06/08 06:00:43;;;;;;;16.85;11.90;;;;;;;18.84;100.00;98650.91;4467669;32;20120;-66
2023/06/08 06:03:11;;;;;;;20.58;12.68;;;;;;;18.84;100.00;98649.06;4467475;32;20123;-67
2023/06/08 06:05:38;;;;;;;22.37;12.70;;;;;;;18.61;100.00;98650.13;4460144;32;20105;-68
2023/06/08 06:08:06;;;;;;;20.83;11.40;;;;;;;18.60;100.00;98651.13;4460134;32;20089;-66
2023/06/08 06:10:34;;;;;;;21.62;11.27;;;;;;;18.77;100.00;98650.84;4460749;32;20162;-66
2023/06/08 06:13:01;;;;;;;16.52;10.85;;;;;;;18.86;100.00;98644.41;4463388;32;20141;-66
2023/06/08 06:15:29;;;;;;;17.42;10.95;;;;;;;18.96;100.00;98647.53;4464921;32;20116;-68
2023/06/08 06:17:58;;;;;;;16.85;11.45;;;;;;;19.04;100.00;98648.41;4462846;32;20180;-68
2023/06/08 06:20:29;;;;;;;19.83;10.68;;;;;;;19.13;100.00;98649.88;4461365;32;20100;-68
2023/06/08 06:22:56;;;;;;;16.20;10.85;;;;;;;19.33;100.00;98650.00;4456526;32;20150;-68
2023/06/08 06:25:24;;;;;;;19.87;11.98;;;;;;;19.50;100.00;98651.31;4457350;32;20101;-68
2023/06/08 06:27:52;;;;;;;15.50;11.18;;;;;;;19.58;100.00;98647.66;4458956;32;20081;-68
2023/06/08 06:30:19;;;;;;;17.58;11.60;;;;;;;19.76;100.00;98649.78;4457981;32;21777;-68
2023/06/08 06:32:46;;;;;;;14.30;10.45;;;;;;;19.66;100.00;98641.34;4461343;32;20116;-68
2023/06/08 06:35:13;;;;;;;14.77;10.88;;;;;;;20.00;100.00;98644.94;4460521;32;20123;-67
2023/06/08 06:37:40;;;;;;;16.30;10.68;;;;;;;20.07;100.00;98644.97;4462079;32;20109;-68
2023/06/08 06:40:08;;;;;;;18.10;10.75;;;;;;;20.51;100.00;98640.94;4461127;32;20088;-67
2023/06/08 06:42:37;;;;;;;20.90;11.07;;;;;;;20.65;100.00;98636.41;4459117;32;20238;-68
2023/06/08 06:45:05;;;;;;;14.30;11.00;;;;;;;20.68;100.00;98642.19;4460378;32;20093;-67
2023/06/08 06:47:32;;;;;;;16.37;10.48;;;;;;;20.56;100.00;98641.97;4458613;32;20188;-67
2023/06/08 06:50:00;;;;;;;18.75;10.40;;;;;;;20.78;100.00;98640.97;4458499;32;20108;-67
2023/06/08 06:52:27;;;;;;;15.93;9.93;;;;;;;21.09;100.00;98633.12;4460140;32;20165;-68
2023/06/08 06:54:54;;;;;;;13.88;9.95;;;;;;;21.36;100.00;98633.06;4462297;32;20853;-68
2023/06/08 06:57:22;;;;;;;18.80;9.88;;;;;;;21.21;100.00;98640.44;4456641;32;20120;-67
2023/06/08 06:59:50;;;;;;;14.68;9.93;;;;;;;21.66;100.00;98640.53;4459278;32;20177;-67
2023/06/08 07:02:18;;;;;;;12.73;9.20;;;;;;;21.85;100.00;98636.13;4457363;32;20114;-65
2023/06/08 07:04:45;;;;;;;15.43;10.48;;;;;;;21.90;100.00;98648.81;4456541;32;20089;-65
2023/06/08 07:07:12;;;;;;;20.50;10.20;;;;;;;21.75;100.00;98643.78;4442604;32;20101;-67
2023/06/08 07:09:40;;;;;;;13.30;10.68;;;;;;;21.67;100.00;98644.84;4445337;32;20169;-67
2023/06/08 07:12:07;;;;;;;15.15;10.82;;;;;;;21.51;100.00;98645.31;4445594;32;20089;-66
2023/06/08 07:14:42;;;;;;;15.52;10.48;;;;;;;21.14;100.00;98640.47;4447404;32;20532;-66
2023/06/08 07:17:11;;;;;;;17.90;11.48;;;;;;;21.06;100.00;98638.03;4445531;32;20116;-67
2023/06/08 07:19:41;;;;;;;18.55;11.73;;;;;;;20.88;100.00;98641.38;4445785;32;20101;-66
2023/06/08 07:22:09;;;;;;;18.83;11.25;;;;;;;20.90;100.00;98634.78;4448850;32;20096;-66
2023/06/08 07:24:56;;;;;;;15.98;11.90;;;;;;;21.01;100.00;98636.00;4443185;32;20160;-67
2023/06/08 07:27:44;;;;;;;16.45;12.13;;;;;;;20.95;100.00;98636.81;4445805;32;20767;-67
2023/06/08 07:30:12;;;;;;;20.62;12.88;;;;;;;20.79;100.00;98637.25;4449651;32;20112;-66
2023/06/08 07:32:40;;;;;;;16.92;12.32;;;;;;;21.02;100.00;98639.50;4448871;32;20663;-66
2023/06/08 07:35:07;;;;;;;21.85;14.20;;;;;;;20.99;100.00;98638.06;4445020;32;20147;-66
2023/06/08 07:37:35;;;;;;;20.85;13.55;;;;;;;20.90;100.00;98649.94;4441190;32;20459;-66
2023/06/08 07:40:07;;;;;;;17.40;13.35;;;;;;;21.20;100.00;98647.62;4446551;32;20131;-66
2023/06/08 07:42:35;;;;;;;17.17;13.40;;;;;;;21.52;100.00;98647.78;4448062;32;20093;-66
2023/06/08 07:45:02;;;;;;;18.85;13.18;;;;;;;21.83;100.00;98640.84;4445361;32;20097;-66
2023/06/08 07:47:29;;;;;;;18.00;13.60;;;;;;;21.78;100.00;98646.81;4446549;32;20128;-67
2023/06/08 07:49:57;;;;;;;18.10;12.73;;;;;;;22.07;100.00;98654.47;4441629;32;20127;-67
2023/06/08 07:52:24;;;;;;;22.33;13.38;;;;;;;22.72;100.00;98643.53;4443855;32;20088;-67
2023/06/08 07:54:51;;;;;;;18.95;12.65;;;;;;;23.09;100.00;98640.97;4447225;32;20100;-67
2023/06/08 07:57:19;;;;;;;20.12;13.40;;;;;;;23.18;100.00;98641.47;4445419;32;20159;-67
2023/06/08 07:59:46;;;;;;;18.12;12.13;;;;;;;23.33;100.00;98641.12;4445506;32;20173;-67
2023/06/08 08:02:14;;;;;;;18.65;12.40;;;;;;;23.36;100.00;98636.16;4445715;32;20127;-67
2023/06/08 08:04:41;;;;;;;17.95;12.80;;;;;;;23.20;100.00;98634.88;4445118;32;20221;-67
2023/06/08 08:07:08;;;;;;;16.58;12.50;;;;;;;23.35;100.00;98639.84;4462494;32;20581;-67
2023/06/08 08:09:35;;;;;;;19.08;11.50;;;;;;;22.93;100.00;98636.97;4459183;32;20131;-67
2023/06/08 08:12:03;;;;;;;16.95;11.50;;;;;;;23.34;100.00;98642.75;4460771;32;20126;-67
2023/06/08 08:14:31;;;;;;;17.85;11.70;;;;;;;23.51;100.00;98638.44;4463238;32;20161;-67
2023/06/08 08:16:58;;;;;;;16.80;13.75;;;;;;;23.69;100.00;98639.44;4456963;32;20165;-67
2023/06/08 08:19:26;;;;;;;18.12;12.93;;;;;;;23.19;100.00;98633.25;4459548;32;20148;-67
2023/06/08 08:21:53;;;;;;;17.92;12.30;;;;;;;23.14;100.00;98638.44;4453281;32;20858;-66
2023/06/08 08:24:20;;;;;;;18.30;11.40;;;;;;;23.12;100.00;98627.16;4463530;32;20454;-66
2023/06/08 08:26:47;;;;;;;15.27;11.30;;;;;;;23.20;100.00;98628.72;4447138;32;20081;-67
2023/06/08 08:29:14;;;;;;;15.68;11.25;;;;;;;23.17;100.00;98638.00;4448985;32;20109;-67
2023/06/08 08:31:42;;;;;;;15.00;11.80;;;;;;;22.85;100.00;98634.59;4459856;32;20141;-67
2023/06/08 08:34:11;;;;;;;15.93;11.73;;;;;;;22.80;100.00;98637.94;4465560;32;20144;-67
2023/06/08 08:36:39;;;;;;;17.73;12.20;;;;;;;23.10;100.00;98633.75;4460637;32;20093;-67
2023/06/08 08:39:07;;;;;;;16.25;10.63;;;;;;;23.64;100.00;98625.94;4464261;32;20139;-66
2023/06/08 08:41:39;;;;;;;22.73;12.37;;;;;;;23.77;100.00;98631.13;4462651;32;20465;-67
2023/06/08 08:44:09;;;;;;;15.30;11.15;;;;;;;23.56;100.00;98637.78;4449888;32;20122;-67
2023/06/08 08:46:39;;;;;;;16.42;12.25;;;;;;;23.82;100.00;98639.28;4456692;32;20097;-67
2023/06/08 08:49:13;;;;;;;16.20;12.23;;;;;;;23.79;100.00;98639.72;4461536;32;21116;-67
2023/06/08 08:51:54;;;;;;;21.23;11.77;;;;;;;23.39;100.00;98634.88;4461110;32;20108;-67
2023/06/08 08:54:31;;;;;;;20.88;11.65;;;;;;;23.11;100.00;98638.88;4445545;32;20096;-67
2023/06/08 08:57:01;;;;;;;15.50;11.23;;;;;;;22.98;100.00;98637.16;4459563;32;20115;-67
2023/06/08 08:59:29;;;;;;;16.52;11.23;;;;;;;23.49;100.00;98640.50;4461971;32;20096;-67
2023/06/08 09:01:56;;;;;;;25.10;12.40;;;;;;;23.67;100.00;98633.53;4446979;32;20489;-67
2023/06/08 09:04:24;;;;;;;15.63;11.10;;;;;;;23.81;100.00;98645.66;4449720;32;20162;-67
2023/06/08 09:06:51;;;;;;;16.55;10.55;;;;;;;24.18;100.00;98642.94;4454868;32;20093;-66
2023/06/08 09:09:23;;;;;;;16.73;11.27;;;;;;;24.15;100.00;98640.72;4457352;32;20132;-66
2023/06/08 09:12:02;;;;;;;13.35;10.30;;;;;;;24.61;100.00;98639.16;4454302;32;20091;-68
2023/06/08 09:14:29;;;;;;;14.90;11.15;;;;;;;24.56;100.00;98625.62;4462861;32;20481;-67
2023/06/08 09:16:59;;;;;;;11.63;9.13;;;;;;;24.06;100.00;98634.06;4462612;32;20089;-67
2023/06/08 09:19:28;;;;;;;13.13;9.82;;;;;;;24.11;100.00;98626.16;4445421;32;20117;-67
2023/06/08 09:21:55;;;;;;;13.45;9.93;;;;;;;24.24;100.00;98625.94;4461900;32;20080;-67
2023/06/08 09:24:23;;;;;;;14.57;10.15;;;;;;;24.25;100.00;98622.22;4460066;32;20093;-67
2023/06/08 09:26:55;;;;;;;13.40;9.32;;;;;;;24.40;100.00;98629.81;4457695;32;21756;-68
2023/06/08 09:29:42;;;;;;;12.30;9.43;;;;;;;24.64;100.00;98626.38;4457569;32;20844;-68
2023/06/08 09:32:16;;;;;;;20.42;10.38;;;;;;;24.73;100.00;98624.97;4456537;32;20141;-67
2023/06/08 09:34:55;;;;;;;13.70;9.52;;;;;;;24.62;100.00;98616.72;4454760;32;20096;-67
2023/06/08 09:37:28;;;;;;;13.20;9.13;;;;;;;24.38;100.00;98623.88;4462233;32;20458;-67
2023/06/08 09:39:57;;;;;;;12.13;8.98;;;;;;;24.44;100.00;98620.25;4455664;32;20123;-67
2023/06/08 09:42:43;;;;;;;11.45;8.95;;;;;;;24.26;100.00;98605.09;4459563;32;20101;-67
2023/06/08 09:45:14;;;;;;;14.87;9.27;;;;;;;24.24;100.00;98607.22;4451750;32;20097;-67
2023/06/08 09:47:42;;;;;;;12.32;9.10;;;;;;;23.68;100.00;98603.88;4448381;32;20122;-67
2023/06/08 09:50:10;;;;;;;10.55;7.95;;;;;;;23.67;100.00;98615.59;4464323;32;20151;-68
2023/06/08 09:52:38;;;;;;;13.40;8.10;;;;;;;23.82;100.00;98612.53;4464595;32;20123;-69
2023/06/08 09:55:06;;;;;;;11.40;8.70;;;;;;;24.15;100.00;98608.59;4458245;32;20096;-67
2023/06/08 09:57:35;;;;;;;14.52;9.25;;;;;;;24.15;100.00;98613.94;4460951;32;20105;-66
2023/06/08 10:00:09;;;;;;;12.15;9.35;;;;;;;23.99;100.00;98609.25;4459937;32;20092;-67
2023/06/08 10:03:07;;;;;;;12.23;9.07;;;;;;;23.67;100.00;98609.44;4440036;32;20140;-66
2023/06/08 10:05:36;;;;;;;16.65;9.65;;;;;;;23.59;100.00;98607.06;4451852;32;20100;-66
2023/06/08 10:08:05;;;;;;;14.25;10.93;;;;;;;23.63;100.00;98602.91;4443069;32;20514;-67
2023/06/08 10:10:36;;;;;;;14.77;10.80;;;;;;;23.27;100.00;98601.91;4452608;32;20147;-67
2023/06/08 10:13:05;;;;;;;16.92;11.63;;;;;;;22.98;100.00;98599.75;4458582;32;20481;-67
2023/06/08 10:15:32;;;;;;;16.42;12.23;;;;;;;22.92;100.00;98597.13;4467997;32;20889;-66
2023/06/08 10:18:00;;;;;;;24.75;13.77;;;;;;;22.41;100.00;98588.38;4453250;32;20092;-66
2023/06/08 10:20:28;;;;;;;16.90;11.32;;;;;;;22.43;100.00;98589.78;4448980;32;20949;-65
2023/06/08 10:22:59;;;;;;;29.12;14.27;;;;;;;22.32;100.00;98593.16;4453428;32;20135;-66
2023/06/08 10:25:30;;;;;;;25.25;12.85;;;;;;;22.00;100.00;98595.84;4442589;32;20199;-65
2023/06/08 10:28:07;;;;;;;17.23;8.93;;;;;;;21.66;100.00;98584.53;4464066;32;20092;-66
2023/06/08 10:30:40;;;;;;;20.50;9.95;;;;;;;20.95;100.00;98577.44;4452030;32;20097;-66
2023/06/08 10:33:15;;;;;;;23.17;15.02;;;;;;;20.86;100.00;98582.16;4457193;32;20147;-66
2023/06/08 10:36:02;;;;;;;25.42;16.23;;;;;;;20.68;100.00;98580.97;4454523;32;20092;-66
2023/06/08 10:38:32;;;;;;;25.20;15.25;;;;;;;20.65;100.00;98576.06;4454808;32;20468;-67
2023/06/08 10:41:00;;;;;;;23.85;16.02;;;;;;;20.66;100.00;98577.69;4444069;32;20116;-65
2023/06/08 10:43:28;;;;;;;22.08;16.35;;;;;;;20.76;100.00;98576.44;4446177;32;20130;-66
2023/06/08 10:46:15;;;;;;;20.90;14.52;;;;;;;20.84;100.00;98568.25;4457210;32;20163;-66
2023/06/08 10:48:43;;;;;;;17.95;11.57;;;;;;;20.96;100.00;98565.75;4460773;32;20154;-66
2023/06/08 10:51:22;;;;;;;16.45;11.75;;;;;;;21.08;100.00;98554.22;4453749;32;20108;-66
2023/06/08 10:53:57;;;;;;;22.70;15.50;;;;;;;21.34;100.00;98555.16;4451603;32;20092;-65
2023/06/08 10:56:26;;;;;;;23.02;16.92;;;;;;;21.64;100.00;98546.63;4454134;32;20609;-65
2023/06/08 10:58:55;;;;;;;27.45;18.42;;;;;;;21.98;100.00;98544.53;4445754;32;20472;-66
2023/06/08 11:01:29;;;;;;;26.48;18.23;;;;;;;22.13;100.00;98552.22;4445086;32;20116;-66
2023/06/08 11:03:58;;;;;;;26.70;18.35;;;;;;;22.39;100.00;98551.25;4448402;32;20858;-66
2023/06/08 11:06:29;;;;;;;24.50;17.98;;;;;;;22.63;100.00;98549.53;4456870;32;20125;-66
2023/06/08 11:09:03;;;;;;;26.42;18.85;;;;;;;23.02;100.00;98550.16;4447691;32;20497;-66
2023/06/08 11:11:33;;;;;;;28.70;18.25;;;;;;;23.20;100.00;98552.03;4443541;32;20136;-65
2023/06/08 11:14:01;;;;;;;22.98;17.52;;;;;;;23.31;100.00;98552.31;4466601;32;20927;-67
2023/06/08 11:16:28;;;;;;;24.37;17.98;;;;;;;23.23;100.00;98552.66;4462697;32;20121;-67
2023/06/08 11:18:56;;;;;;;26.80;18.58;;;;;;;23.69;100.00;98548.50;4457455;32;20431;-67
2023/06/08 11:21:23;;;;;;;25.83;18.77;;;;;;;24.12;100.00;98546.66;4459388;32;20521;-67